Time;durP1;ratioP1;P1;durP2;ratioP2;P2;SDS_P1;SDS_P2;PMS_P1;PMS_P2;Temp;Humidity;BMP_temperature;BMP_pressure;BME280_temperature;BME280_humidity;BME280_pressure;Samples;Min_cycle;Max_cycle;Signal;HPM_P1;HPM_P2
2022/09/18 00:01:08;;;;;;;2.65;0.60;;;13.00;99.90;;;;;;10032844;28;20015;-60
2022/09/18 00:06:06;;;;;;;3.78;0.90;;;13.00;99.90;;;;;;10037381;28;20138;-60
2022/09/18 00:10:56;;;;;;;1.00;0.50;;;13.10;99.90;;;;;;10021390;28;20044;-60
2022/09/18 00:15:54;;;;;;;4.28;0.60;;;13.10;99.90;;;;;;10039601;28;20195;-60
2022/09/18 00:20:45;;;;;;;2.05;0.70;;;13.00;99.90;;;;;;10035615;28;20123;-60
2022/09/18 00:25:35;;;;;;;1.85;0.70;;;13.10;99.90;;;;;;10036735;28;20130;-62
2022/09/18 00:30:26;;;;;;;2.67;0.75;;;13.10;99.90;;;;;;10046696;28;20065;-60
2022/09/18 00:35:16;;;;;;;2.00;0.68;;;13.10;99.90;;;;;;10052744;28;20041;-60
2022/09/18 00:40:08;;;;;;;0.45;0.45;;;13.10;99.90;;;;;;10051072;28;20247;-60
2022/09/18 00:44:59;;;;;;;4.05;0.80;;;13.10;99.90;;;;;;10038207;28;20472;-59
2022/09/18 00:50:06;;;;;;;0.65;0.50;;;13.10;99.90;;;;;;10021144;28;20033;-61
2022/09/18 00:55:08;;;;;;;3.80;1.20;;;13.00;99.90;;;;;;10022705;28;20084;-60
2022/09/18 01:00:03;;;;;;;4.85;1.15;;;13.00;99.90;;;;;;10017222;28;20045;-60
2022/09/18 01:04:54;;;;;;;2.42;0.80;;;12.90;99.90;;;;;;10021781;28;20038;-60
2022/09/18 01:09:56;;;;;;;1.60;0.43;;;13.00;99.90;;;;;;10030513;28;20188;-60
2022/09/18 01:14:53;;;;;;;0.65;0.65;;;13.00;99.90;;;;;;10027845;28;20049;-60
2022/09/18 01:19:43;;;;;;;1.60;0.77;;;13.00;99.90;;;;;;10018170;28;20027;-59
2022/09/18 01:25:07;;;;;;;0.70;0.40;;;12.90;99.90;;;;;;10032572;28;20025;-60
2022/09/18 01:30:09;;;;;;;3.03;0.70;;;13.00;99.90;;;;;;10020570;28;20029;-60
2022/09/18 01:35:15;;;;;;;1.83;0.82;;;12.90;99.90;;;;;;10032772;28;20238;-60
2022/09/18 01:40:21;;;;;;;2.67;0.70;;;12.90;99.90;;;;;;10029040;28;20032;-60
2022/09/18 01:45:15;;;;;;;;;;;13.00;99.90;;;;;;10028828;28;20360;-59
2022/09/18 01:50:08;;;;;;;2.03;0.60;;;13.00;99.90;;;;;;10022411;28;20373;-60
2022/09/18 01:55:00;;;;;;;1.67;0.52;;;13.00;99.90;;;;;;10032215;28;20550;-59
2022/09/18 02:00:04;;;;;;;0.82;0.50;;;13.00;99.90;;;;;;10028662;28;20032;-61
2022/09/18 02:04:58;;;;;;;2.50;1.17;;;13.00;99.90;;;;;;10026090;28;20038;-60
2022/09/18 02:09:49;;;;;;;1.77;0.90;;;12.90;99.90;;;;;;10039606;28;20157;-59
2022/09/18 02:14:47;;;;;;;1.65;0.63;;;12.90;99.90;;;;;;10041357;28;20425;-63
2022/09/18 02:19:54;;;;;;;4.82;0.80;;;12.90;99.90;;;;;;10025507;28;20435;-60
2022/09/18 02:24:47;;;;;;;1.25;0.90;;;13.00;99.90;;;;;;10018014;28;20022;-60
2022/09/18 02:29:40;;;;;;;0.98;0.60;;;13.00;99.90;;;;;;10025652;28;20068;-59
2022/09/18 02:34:32;;;;;;;4.05;1.00;;;13.00;99.90;;;;;;10014835;28;1096372;-59
2022/09/18 02:39:34;;;;;;;0.80;0.50;;;13.10;99.90;;;;;;10026608;28;20085;-60
2022/09/18 02:44:39;;;;;;;4.20;0.60;;;13.10;99.90;;;;;;10020525;28;20026;-60
2022/09/18 02:49:48;;;;;;;4.05;0.88;;;13.00;99.90;;;;;;10026194;28;20038;-60
2022/09/18 02:54:58;;;;;;;2.00;0.60;;;13.00;99.90;;;;;;10023080;28;20029;-59
2022/09/18 02:59:56;;;;;;;1.35;0.45;;;13.00;99.90;;;;;;10026793;28;20034;-59
2022/09/18 03:04:47;;;;;;;1.88;0.77;;;13.00;99.90;;;;;;10015813;28;20029;-59
2022/09/18 03:09:37;;;;;;;1.00;0.50;;;13.00;99.90;;;;;;10032128;28;20209;-59
2022/09/18 03:14:28;;;;;;;1.67;0.73;;;13.10;99.90;;;;;;10044877;28;20360;-59
2022/09/18 03:19:18;;;;;;;0.77;0.77;;;13.10;99.90;;;;;;10040573;28;20040;-60
2022/09/18 03:24:09;;;;;;;1.75;0.63;;;13.10;99.90;;;;;;10039824;28;20121;-59
2022/09/18 03:29:00;;;;;;;2.08;0.88;;;13.10;99.90;;;;;;10040961;28;20088;-59
2022/09/18 03:33:50;;;;;;;0.90;0.70;;;13.10;99.90;;;;;;10058419;28;20491;-60
2022/09/18 03:38:41;;;;;;;0.85;0.60;;;13.10;99.90;;;;;;10052927;28;20251;-60
2022/09/18 03:43:33;;;;;;;1.75;0.60;;;13.10;99.90;;;;;;10053397;28;20043;-60
2022/09/18 03:48:23;;;;;;;1.65;0.70;;;13.10;99.90;;;;;;10046628;28;20280;-60
2022/09/18 03:53:14;;;;;;;1.13;0.80;;;13.10;99.90;;;;;;10039705;28;20049;-59
2022/09/18 03:58:05;;;;;;;1.98;0.60;;;13.00;99.90;;;;;;10035393;28;20025;-60
2022/09/18 04:02:55;;;;;;;2.08;0.75;;;13.10;99.90;;;;;;10033861;28;20013;-61
2022/09/18 04:07:46;;;;;;;2.63;0.70;;;13.00;99.90;;;;;;10060233;28;20030;-60
2022/09/18 04:12:37;;;;;;;2.38;0.60;;;12.90;99.90;;;;;;10052037;28;20301;-60
2022/09/18 04:17:27;;;;;;;0.57;0.50;;;12.80;99.90;;;;;;10038522;28;20026;-60
2022/09/18 04:22:18;;;;;;;1.40;1.00;;;13.00;99.90;;;;;;10024055;28;20037;-60
2022/09/18 04:27:09;;;;;;;1.23;0.77;;;13.00;99.90;;;;;;10022400;28;20511;-60
2022/09/18 04:31:59;;;;;;;2.25;0.88;;;12.90;99.90;;;;;;10035907;28;20045;-60
2022/09/18 04:36:50;;;;;;;2.70;0.70;;;12.70;99.90;;;;;;10040622;28;20021;-60
2022/09/18 04:41:41;;;;;;;5.22;1.42;;;12.70;99.90;;;;;;10037825;28;20026;-59
2022/09/18 04:46:32;;;;;;;0.88;0.60;;;12.70;99.90;;;;;;10029166;28;20069;-60
2022/09/18 04:51:22;;;;;;;7.63;0.88;;;12.60;99.90;;;;;;10023006;28;20030;-60
2022/09/18 04:56:13;;;;;;;2.03;1.00;;;12.70;99.90;;;;;;10020103;28;20264;-59
2022/09/18 05:01:04;;;;;;;4.38;0.90;;;12.50;99.90;;;;;;10016151;28;20066;-60
2022/09/18 05:05:55;;;;;;;3.25;0.90;;;12.50;99.90;;;;;;10015922;28;20126;-60
2022/09/18 05:10:45;;;;;;;1.70;1.00;;;12.60;99.90;;;;;;10026952;28;20169;-62
2022/09/18 05:15:36;;;;;;;10.77;1.25;;;12.60;99.90;;;;;;10029265;28;20295;-59
2022/09/18 05:20:27;;;;;;;2.45;0.93;;;12.70;99.90;;;;;;10016014;28;20014;-60
2022/09/18 05:25:19;;;;;;;4.00;1.10;;;12.50;99.90;;;;;;10026876;28;20040;-61
2022/09/18 05:30:10;;;;;;;2.00;0.80;;;12.50;99.90;;;;;;10036010;28;20029;-60
2022/09/18 05:35:00;;;;;;;2.95;1.35;;;12.50;99.90;;;;;;10040171;28;20029;-60
2022/09/18 05:39:51;;;;;;;1.98;0.90;;;12.50;99.90;;;;;;10034691;28;20430;-60
2022/09/18 05:44:42;;;;;;;1.77;1.02;;;12.50;99.90;;;;;;10031020;28;20455;-60
2022/09/18 05:49:32;;;;;;;1.73;0.95;;;12.60;99.90;;;;;;10025925;28;20029;-60
2022/09/18 05:54:23;;;;;;;4.30;1.23;;;12.70;99.90;;;;;;10021851;28;20611;-60
2022/09/18 05:59:13;;;;;;;1.65;1.55;;;12.80;99.90;;;;;;10016963;28;20033;-61
2022/09/18 06:04:04;;;;;;;4.40;0.88;;;12.90;99.90;;;;;;10017674;28;20032;-60
2022/09/18 06:08:55;;;;;;;3.35;1.08;;;12.90;99.90;;;;;;10042204;28;20041;-61
2022/09/18 06:13:50;;;;;;;0.73;0.70;;;13.00;99.90;;;;;;10034291;28;20018;-60
2022/09/18 06:18:41;;;;;;;1.65;1.02;;;13.10;99.90;;;;;;10016152;28;20116;-61
2022/09/18 06:23:32;;;;;;;1.50;0.73;;;13.10;99.90;;;;;;10021598;28;20116;-60
2022/09/18 06:28:22;;;;;;;0.95;0.65;;;13.30;99.90;;;;;;10027980;28;20029;-61
2022/09/18 06:33:13;;;;;;;2.70;0.50;;;13.20;99.90;;;;;;10043527;28;20090;-59
2022/09/18 06:38:05;;;;;;;1.25;0.50;;;13.30;99.90;;;;;;10035437;28;20022;-60
2022/09/18 06:42:57;;;;;;;2.00;0.85;;;13.30;99.90;;;;;;10033962;28;20121;-60
2022/09/18 06:47:48;;;;;;;4.43;1.10;;;13.40;99.90;;;;;;10025644;28;20033;-61
2022/09/18 06:52:38;;;;;;;6.15;0.90;;;13.40;99.90;;;;;;10023878;28;20026;-62
2022/09/18 06:57:30;;;;;;;2.47;0.88;;;13.40;99.90;;;;;;10016733;28;20397;-61
2022/09/18 07:02:20;;;;;;;3.30;1.30;;;13.60;99.90;;;;;;10014581;28;20026;-60
2022/09/18 07:07:11;;;;;;;1.38;0.60;;;13.60;99.90;;;;;;10040584;28;20018;-60
2022/09/18 07:12:02;;;;;;;1.92;0.70;;;13.80;99.90;;;;;;10029404;28;20030;-61
2022/09/18 07:16:52;;;;;;;2.13;1.20;;;13.70;99.90;;;;;;10024304;28;20247;-64
2022/09/18 07:21:43;;;;;;;2.10;0.65;;;13.80;99.90;;;;;;10016563;28;20087;-61
2022/09/18 07:26:34;;;;;;;3.47;0.70;;;13.90;99.90;;;;;;10017620;28;20265;-61
2022/09/18 07:31:25;;;;;;;3.30;0.73;;;14.10;99.90;;;;;;10032111;28;20044;-63
2022/09/18 07:36:16;;;;;;;1.40;0.75;;;14.30;99.90;;;;;;10043799;28;20048;-60
2022/09/18 07:41:07;;;;;;;2.55;0.93;;;14.30;99.90;;;;;;10036977;28;20288;-60
2022/09/18 07:45:57;;;;;;;7.47;1.00;;;14.30;99.90;;;;;;10035040;28;20121;-60
2022/09/18 07:50:48;;;;;;;1.45;0.80;;;14.40;99.90;;;;;;10029221;28;20125;-61
2022/09/18 07:55:41;;;;;;;1.98;1.02;;;14.70;99.90;;;;;;10020736;28;20385;-61
2022/09/18 08:00:35;;;;;;;1.08;0.65;;;14.80;99.90;;;;;;10019989;28;20026;-60
2022/09/18 08:05:25;;;;;;;3.83;0.60;;;15.00;99.90;;;;;;10019379;28;20383;-61
2022/09/18 08:10:16;;;;;;;6.93;0.80;;;15.20;99.90;;;;;;10044781;28;20112;-61
2022/09/18 08:15:07;;;;;;;2.78;0.68;;;15.00;99.90;;;;;;10033720;28;20064;-62
2022/09/18 08:19:58;;;;;;;2.53;1.30;;;15.10;99.90;;;;;;10025446;28;20060;-60
2022/09/18 08:24:49;;;;;;;1.60;0.80;;;15.00;99.90;;;;;;10022450;28;20499;-60
2022/09/18 08:29:40;;;;;;;2.72;0.82;;;14.80;99.90;;;;;;10022218;28;20026;-61
2022/09/18 08:34:31;;;;;;;1.25;0.93;;;14.80;99.90;;;;;;10034971;28;20065;-60
2022/09/18 08:39:21;;;;;;;2.35;0.90;;;15.00;99.90;;;;;;10040431;28;20566;-59
2022/09/18 08:44:23;;;;;;;3.42;1.13;;;15.40;99.90;;;;;;10041964;28;20081;-60
2022/09/18 08:49:19;;;;;;;1.85;0.70;;;15.50;99.90;;;;;;10039455;28;20156;-61
2022/09/18 08:54:32;;;;;;;0.63;0.40;;;15.60;99.90;;;;;;10035048;28;20022;-61
2022/09/18 08:59:38;;;;;;;2.78;0.80;;;15.70;99.70;;;;;;10031112;28;20275;-61
2022/09/18 09:04:29;;;;;;;1.70;0.70;;;15.90;99.70;;;;;;10038374;28;20032;-60
2022/09/18 09:09:52;;;;;;;2.95;1.30;;;16.20;99.30;;;;;;10054508;28;20033;-60
2022/09/18 09:15:18;;;;;;;3.00;0.75;;;16.50;99.20;;;;;;10005350;28;20241;-61
2022/09/18 09:20:24;;;;;;;2.65;0.77;;;16.40;98.90;;;;;;10025578;28;20056;-62
2022/09/18 09:25:38;;;;;;;1.48;0.63;;;16.60;98.80;;;;;;10015195;28;20534;-59
2022/09/18 09:30:32;;;;;;;1.75;1.17;;;16.30;98.50;;;;;;10030467;28;20034;-60
2022/09/18 09:35:45;;;;;;;3.28;1.15;;;16.10;98.70;;;;;;10048354;28;20029;-60
2022/09/18 09:40:45;;;;;;;5.28;0.90;;;16.10;98.30;;;;;;10048041;28;20566;-60
2022/09/18 09:45:50;;;;;;;2.35;0.60;;;16.40;98.00;;;;;;10047029;28;20041;-60
2022/09/18 09:51:12;;;;;;;2.72;0.90;;;16.50;97.10;;;;;;10033908;28;20041;-60
2022/09/18 09:56:12;;;;;;;3.60;0.80;;;16.30;96.80;;;;;;10036714;28;20279;-60
2022/09/18 10:01:09;;;;;;;2.92;1.02;;;16.40;96.70;;;;;;10018376;28;20018;-60
2022/09/18 10:06:21;;;;;;;0.65;0.55;;;16.60;96.40;;;;;;10036491;28;20033;-59
2022/09/18 10:11:13;;;;;;;3.38;0.63;;;16.70;95.80;;;;;;10042592;28;20068;-60
2022/09/18 10:16:15;;;;;;;0.90;0.60;;;16.60;95.80;;;;;;10037799;28;20025;-59
2022/09/18 10:21:22;;;;;;;3.55;0.70;;;16.50;95.10;;;;;;10033010;28;20053;-61
2022/09/18 10:26:27;;;;;;;3.30;1.15;;;16.40;94.60;;;;;;10034115;28;20056;-63
2022/09/18 10:31:17;;;;;;;2.60;0.73;;;16.50;94.50;;;;;;10021863;28;20496;-61
2022/09/18 10:36:21;;;;;;;5.10;0.90;;;16.70;94.50;;;;;;10029869;28;20030;-59
2022/09/18 10:41:42;;;;;;;2.20;0.73;;;16.70;94.20;;;;;;10028148;28;20025;-61
2022/09/18 10:46:38;;;;;;;4.20;1.00;;;16.90;93.70;;;;;;10027730;28;20153;-59
2022/09/18 10:51:28;;;;;;;2.30;0.70;;;17.10;93.30;;;;;;10017719;28;20496;-61
2022/09/18 10:56:20;;;;;;;3.40;0.82;;;17.10;93.60;;;;;;10009845;28;20097;-59
2022/09/18 11:01:12;;;;;;;2.92;0.93;;;17.10;93.10;;;;;;10027857;28;20033;-60
2022/09/18 11:06:07;;;;;;;1.35;0.60;;;17.00;93.20;;;;;;10044077;28;20056;-60
2022/09/18 11:11:02;;;;;;;3.90;0.80;;;17.20;93.10;;;;;;10045394;28;20026;-62
2022/09/18 11:15:58;;;;;;;1.73;0.80;;;17.70;92.90;;;;;;10025706;28;20036;-61
2022/09/18 11:20:50;;;;;;;3.83;0.90;;;17.90;92.70;;;;;;10026525;28;20041;-64
2022/09/18 11:25:41;;;;;;;2.78;0.60;;;17.80;92.50;;;;;;10028351;28;20056;-60
2022/09/18 11:30:34;;;;;;;2.25;0.93;;;17.50;92.00;;;;;;10019796;28;20042;-60
2022/09/18 11:35:28;;;;;;;1.17;0.60;;;17.40;91.90;;;;;;10029822;28;20017;-60
2022/09/18 11:40:39;;;;;;;1.98;0.90;;;17.30;91.90;;;;;;10035618;28;20025;-62
2022/09/18 11:46:02;;;;;;;0.75;0.73;;;17.40;91.90;;;;;;10026881;28;20106;-59
2022/09/18 11:51:00;;;;;;;2.95;0.82;;;17.50;91.40;;;;;;10028459;28;20052;-62
2022/09/18 11:56:11;;;;;;;3.05;0.85;;;17.60;91.40;;;;;;10020894;28;20105;-60
2022/09/18 12:01:12;;;;;;;4.93;1.10;;;17.90;91.10;;;;;;10021900;28;20052;-60
2022/09/18 12:06:11;;;;;;;1.40;0.85;;;18.10;91.00;;;;;;10026279;28;20046;-61
2022/09/18 12:11:16;;;;;;;3.28;0.70;;;18.50;90.60;;;;;;10008222;28;20017;-60
2022/09/18 12:16:11;;;;;;;;;;;18.50;90.60;;;;;;10029324;28;20030;-61
2022/09/18 12:21:08;;;;;;;1.25;0.65;;;18.70;90.10;;;;;;10019792;28;20092;-62
2022/09/18 12:26:13;;;;;;;0.95;0.82;;;18.40;90.30;;;;;;10017833;28;20045;-60
2022/09/18 12:31:21;;;;;;;1.00;0.60;;;18.40;89.60;;;;;;10044678;28;20197;-60
2022/09/18 12:36:46;;;;;;;0.73;0.38;;;18.40;89.00;;;;;;10044938;28;20030;-61
2022/09/18 12:42:18;;;;;;;2.45;0.50;;;18.80;88.20;;;;;;10027794;28;20410;-60
2022/09/18 12:47:29;;;;;;;2.20;1.08;;;18.70;87.00;;;;;;10025373;28;20045;-61
2022/09/18 12:52:34;;;;;;;2.20;0.90;;;18.40;86.10;;;;;;10016219;28;20033;-60
2022/09/18 12:57:24;;;;;;;2.35;0.60;;;18.50;84.70;;;;;;10025137;28;20071;-60
2022/09/18 13:02:32;;;;;;;0.95;0.68;;;18.40;85.30;;;;;;10020477;28;20022;-61
2022/09/18 13:07:26;;;;;;;0.75;0.60;;;18.30;84.30;;;;;;10039116;28;20396;-60
2022/09/18 13:12:40;;;;;;;1.13;0.68;;;18.50;84.80;;;;;;10036028;28;20406;-61
2022/09/18 13:17:37;;;;;;;1.77;0.90;;;18.40;83.70;;;;;;10026805;28;20038;-63
2022/09/18 13:22:32;;;;;;;3.08;0.55;;;18.50;84.00;;;;;;10033835;28;20057;-60
2022/09/18 13:27:24;;;;;;;3.30;0.75;;;18.60;83.00;;;;;;10028604;28;20036;-60
2022/09/18 13:32:21;;;;;;;2.22;0.50;;;18.40;82.00;;;;;;10044289;28;20051;-62
2022/09/18 13:37:15;;;;;;;2.53;0.45;;;18.40;81.30;;;;;;10050050;28;20038;-60
2022/09/18 13:42:06;;;;;;;3.22;0.70;;;18.20;81.20;;;;;;10045888;28;20199;-60
2022/09/18 13:47:18;;;;;;;1.40;0.70;;;18.20;81.00;;;;;;10042240;28;20041;-60
2022/09/18 13:52:30;;;;;;;2.35;0.50;;;18.20;80.50;;;;;;10039416;28;20290;-61
2022/09/18 13:57:28;;;;;;;1.95;0.65;;;18.20;79.80;;;;;;10035441;28;20308;-63
2022/09/18 14:02:31;;;;;;;1.88;0.82;;;18.40;79.90;;;;;;10028263;28;20256;-60
2022/09/18 14:07:31;;;;;;;0.43;0.43;;;18.60;79.50;;;;;;10058882;28;20036;-61
2022/09/18 14:12:23;;;;;;;1.23;0.50;;;19.10;79.50;;;;;;10047461;28;20601;-60
2022/09/18 14:17:15;;;;;;;2.17;0.63;;;19.40;79.10;;;;;;10029692;28;20034;-61
2022/09/18 14:22:28;;;;;;;1.63;0.90;;;20.10;78.60;;;;;;10034790;28;20056;-61
2022/09/18 14:27:39;;;;;;;3.92;0.63;;;21.00;76.00;;;;;;10036676;28;20041;-61
2022/09/18 14:32:32;;;;;;;1.00;0.45;;;20.40;76.40;;;;;;10036181;28;20630;-60
2022/09/18 14:37:28;;;;;;;0.70;0.52;;;19.60;76.70;;;;;;10051514;28;20036;-60
2022/09/18 14:42:35;;;;;;;1.98;0.70;;;19.10;76.30;;;;;;10054973;28;20392;-61
2022/09/18 14:47:26;;;;;;;2.83;0.52;;;18.80;75.90;;;;;;10045654;28;20076;-60
2022/09/18 14:52:26;;;;;;;1.75;0.40;;;18.40;75.70;;;;;;10038235;28;20212;-61
2022/09/18 14:57:21;;;;;;;2.15;0.70;;;18.50;75.50;;;;;;10038287;28;20309;-60
2022/09/18 15:02:20;;;;;;;;;;;18.40;75.60;;;;;;10036564;28;20254;-61
2022/09/18 15:07:19;;;;;;;0.75;0.50;;;18.60;75.50;;;;;;10053637;28;20338;-61
2022/09/18 15:12:16;;;;;;;4.10;0.70;;;18.40;75.50;;;;;;10050072;28;20032;-62
2022/09/18 15:17:26;;;;;;;1.17;0.65;;;18.20;75.60;;;;;;10039056;28;20026;-61
2022/09/18 15:22:21;;;;;;;1.25;0.50;;;18.10;75.50;;;;;;10031040;28;20498;-61
2022/09/18 15:27:13;;;;;;;;;;;18.20;75.40;;;;;;10043110;28;20058;-61
2022/09/18 15:32:05;;;;;;;3.38;0.73;;;18.10;75.50;;;;;;10064145;28;20012;-60
2022/09/18 15:36:59;;;;;;;1.30;0.45;;;18.00;75.80;;;;;;10055205;28;20397;-61
2022/09/18 15:41:50;;;;;;;2.10;1.43;;;18.00;75.90;;;;;;10051513;28;20277;-64
2022/09/18 15:46:41;;;;;;;2.42;0.73;;;18.00;76.00;;;;;;10047762;28;20337;-62
2022/09/18 15:51:33;;;;;;;2.22;0.60;;;17.80;76.20;;;;;;10018693;28;20097;-61
2022/09/18 15:56:24;;;;;;;0.50;0.47;;;17.70;76.30;;;;;;10031270;28;20240;-60
2022/09/18 16:01:21;;;;;;;1.55;0.70;;;17.70;76.50;;;;;;10031507;28;20240;-62
2022/09/18 16:06:29;;;;;;;2.40;0.73;;;17.60;76.80;;;;;;10023633;28;20341;-61
2022/09/18 16:11:40;;;;;;;1.88;0.68;;;17.50;77.10;;;;;;10048251;28;20026;-62
2022/09/18 16:16:31;;;;;;;1.30;0.55;;;17.50;77.30;;;;;;10039646;28;20344;-63
2022/09/18 16:21:24;;;;;;;1.20;0.98;;;17.50;77.30;;;;;;10033277;28;20105;-63
2022/09/18 16:26:18;;;;;;;2.58;1.00;;;17.30;77.30;;;;;;10036584;28;20029;-65
2022/09/18 16:31:11;;;;;;;1.27;0.60;;;17.30;77.50;;;;;;10046854;28;20053;-64
2022/09/18 16:36:06;;;;;;;0.75;0.50;;;17.10;77.70;;;;;;10034166;28;20033;-64
2022/09/18 16:40:57;;;;;;;2.70;0.90;;;17.10;78.00;;;;;;10040866;28;20689;-62
2022/09/18 16:45:48;;;;;;;2.70;0.85;;;17.20;77.90;;;;;;10033165;28;20327;-62
2022/09/18 16:50:38;;;;;;;1.75;1.00;;;17.20;78.30;;;;;;10026033;28;20062;-63
2022/09/18 16:55:30;;;;;;;2.67;0.82;;;18.20;76.90;;;;;;10017231;28;20026;-63
2022/09/18 17:00:20;;;;;;;1.10;0.70;;;17.90;77.40;;;;;;10018428;28;20188;-62
2022/09/18 17:05:11;;;;;;;1.00;0.70;;;17.50;78.30;;;;;;10008563;28;20085;-63
2022/09/18 17:10:02;;;;;;;1.95;1.13;;;17.20;78.80;;;;;;10035099;28;20040;-62
2022/09/18 17:14:53;;;;;;;1.25;1.15;;;17.10;79.30;;;;;;10034610;28;20034;-62
2022/09/18 17:19:43;;;;;;;1.65;1.00;;;17.00;79.60;;;;;;10017565;28;20034;-64
2022/09/18 17:24:34;;;;;;;2.45;1.10;;;17.00;79.80;;;;;;10023148;28;20494;-66
2022/09/18 17:29:25;;;;;;;2.15;1.02;;;16.80;80.20;;;;;;10007679;28;20105;-67
2022/09/18 17:34:17;;;;;;;8.27;1.48;;;16.80;80.60;;;;;;9999373;28;20049;-64
2022/09/18 17:39:08;;;;;;;2.38;0.80;;;16.70;80.90;;;;;;10022376;28;20081;-66
2022/09/18 17:43:59;;;;;;;0.98;0.80;;;16.70;81.30;;;;;;10025833;28;20014;-64
2022/09/18 17:48:54;;;;;;;1.27;0.82;;;16.70;81.70;;;;;;10022494;28;20040;-65
2022/09/18 17:53:47;;;;;;;1.60;1.27;;;16.60;81.90;;;;;;10010948;28;20068;-65
2022/09/18 17:58:40;;;;;;;2.53;1.17;;;16.60;82.20;;;;;;10019559;28;20399;-63
2022/09/18 18:03:30;;;;;;;1.98;1.17;;;16.60;82.50;;;;;;10017041;28;20017;-68
2022/09/18 18:08:21;;;;;;;3.10;0.60;;;16.60;83.00;;;;;;10029879;28;20416;-65
2022/09/18 18:13:12;;;;;;;2.80;0.60;;;16.50;83.30;;;;;;10039470;28;20472;-67
2022/09/18 18:18:03;;;;;;;1.98;0.85;;;16.50;83.60;;;;;;10017626;28;20034;-62
2022/09/18 18:22:54;;;;;;;2.03;1.00;;;16.50;83.90;;;;;;10023290;28;20048;-63
2022/09/18 18:27:44;;;;;;;1.70;0.90;;;16.50;84.20;;;;;;10020316;28;20040;-64
2022/09/18 18:32:35;;;;;;;1.30;0.88;;;16.50;84.40;;;;;;10023941;28;20160;-63
2022/09/18 18:37:26;;;;;;;1.55;0.98;;;16.50;84.80;;;;;;10030002;28;20084;-65
2022/09/18 18:42:17;;;;;;;3.55;1.02;;;16.40;85.10;;;;;;10030703;28;20113;-63
2022/09/18 18:47:08;;;;;;;1.23;0.80;;;16.40;85.30;;;;;;10026947;28;20037;-62
2022/09/18 18:52:01;;;;;;;2.50;1.70;;;16.40;85.70;;;;;;10019846;28;20034;-65
2022/09/18 18:56:51;;;;;;;1.95;1.30;;;16.40;86.00;;;;;;10011367;28;20471;-62
2022/09/18 19:01:43;;;;;;;2.30;1.55;;;16.40;86.30;;;;;;10016674;28;20018;-63
2022/09/18 19:06:35;;;;;;;2.47;0.93;;;16.40;86.70;;;;;;10025371;28;20026;-67
2022/09/18 19:11:29;;;;;;;1.92;1.38;;;16.40;87.10;;;;;;10027397;28;20549;-63
2022/09/18 19:16:20;;;;;;;2.97;1.35;;;16.40;87.40;;;;;;10016734;28;20054;-63
2022/09/18 19:21:10;;;;;;;2.25;1.13;;;16.30;88.00;;;;;;10016408;28;20380;-64
2022/09/18 19:26:01;;;;;;;2.28;1.13;;;16.30;88.30;;;;;;10031002;28;20480;-61
2022/09/18 19:30:52;;;;;;;2.15;0.80;;;16.20;88.80;;;;;;10049173;28;20512;-64
2022/09/18 19:35:43;;;;;;;3.22;2.00;;;16.20;89.40;;;;;;10052250;28;20022;-63
2022/09/18 19:40:36;;;;;;;14.13;7.95;;;16.20;89.70;;;;;;10059156;28;20033;-63
2022/09/18 19:45:30;;;;;;;3.00;1.27;;;16.10;90.10;;;;;;10050730;28;20050;-63
2022/09/18 19:50:31;;;;;;;2.35;0.68;;;16.10;90.20;;;;;;10044241;28;20286;-62
2022/09/18 19:55:22;;;;;;;2.63;0.90;;;16.10;90.40;;;;;;10025004;28;20032;-63
2022/09/18 20:00:13;;;;;;;1.25;0.70;;;16.10;90.80;;;;;;10031318;28;20051;-61
2022/09/18 20:05:06;;;;;;;4.95;0.95;;;16.00;90.60;;;;;;10030561;28;20479;-66
2022/09/18 20:09:57;;;;;;;2.47;0.73;;;16.00;90.60;;;;;;10036033;28;20040;-62
2022/09/18 20:14:47;;;;;;;3.67;1.27;;;16.00;90.80;;;;;;10029794;28;20387;-60
2022/09/18 20:19:38;;;;;;;4.18;0.77;;;15.90;90.80;;;;;;10019928;28;20080;-62
2022/09/18 20:24:30;;;;;;;2.65;1.55;;;15.80;90.90;;;;;;10024409;28;20508;-63
2022/09/18 20:29:20;;;;;;;3.08;0.60;;;15.80;90.90;;;;;;10039635;28;20152;-65
2022/09/18 20:34:11;;;;;;;3.13;0.60;;;15.80;90.80;;;;;;10039002;28;20149;-62
2022/09/18 20:39:03;;;;;;;2.70;0.88;;;15.80;90.80;;;;;;10020606;28;20109;-62
2022/09/18 20:43:54;;;;;;;1.83;0.80;;;15.80;90.80;;;;;;10028789;28;20046;-61
2022/09/18 20:48:51;;;;;;;1.70;0.40;;;15.80;90.80;;;;;;10028519;28;20073;-61
2022/09/18 20:53:44;;;;;;;0.70;0.40;;;15.70;90.80;;;;;;10017756;28;20615;-62
2022/09/18 20:58:35;;;;;;;0.73;0.57;;;15.60;90.70;;;;;;10006410;28;20353;-61
2022/09/18 21:03:26;;;;;;;0.40;0.40;;;15.60;90.60;;;;;;10011337;28;20037;-61
2022/09/18 21:08:17;;;;;;;0.52;0.47;;;15.60;90.50;;;;;;10026968;28;20056;-61
2022/09/18 21:13:09;;;;;;;2.22;0.50;;;15.60;90.50;;;;;;10038342;28;20021;-63
2022/09/18 21:18:00;;;;;;;3.03;0.47;;;15.50;90.50;;;;;;10019057;28;20080;-61
2022/09/18 21:28:04;;;;;;;1.83;0.60;;;15.50;90.50;;;;;;10022659;28;20480;-61
2022/09/18 21:32:55;;;;;;;1.00;0.80;;;15.50;90.60;;;;;;10026580;28;20057;-62
2022/09/18 21:37:47;;;;;;;2.10;0.52;;;15.40;90.70;;;;;;10036991;28;20265;-62
2022/09/18 21:42:46;;;;;;;1.98;0.47;;;15.40;90.80;;;;;;10033501;28;20033;-61
2022/09/18 21:47:37;;;;;;;0.93;0.40;;;15.40;90.90;;;;;;10025643;28;20088;-62
2022/09/18 21:52:28;;;;;;;1.88;0.50;;;15.40;90.90;;;;;;10015159;28;20026;-62
2022/09/18 21:57:18;;;;;;;1.15;0.50;;;15.40;91.00;;;;;;10011633;28;20819;-63
2022/09/18 22:02:10;;;;;;;1.23;0.68;;;15.30;91.10;;;;;;10014123;28;20104;-62
2022/09/18 22:07:01;;;;;;;1.17;0.57;;;15.30;91.20;;;;;;10020968;28;20042;-61
2022/09/18 22:11:53;;;;;;;2.15;0.68;;;15.20;91.30;;;;;;10033026;28;20026;-62
2022/09/18 22:16:45;;;;;;;2.10;0.55;;;15.20;91.40;;;;;;10020870;28;20718;-62
2022/09/18 22:21:38;;;;;;;2.40;0.80;;;15.30;91.50;;;;;;10016698;28;20030;-61
2022/09/18 22:26:29;;;;;;;2.90;0.88;;;15.20;91.50;;;;;;10019369;28;20033;-61
2022/09/18 22:31:20;;;;;;;1.00;0.50;;;15.20;91.60;;;;;;10015791;28;20415;-61
2022/09/18 22:36:13;;;;;;;2.00;0.70;;;15.20;91.70;;;;;;10036435;28;20022;-65
2022/09/18 22:41:05;;;;;;;1.90;0.70;;;15.20;91.70;;;;;;10029766;28;20566;-61
2022/09/18 22:46:10;;;;;;;0.85;0.52;;;15.20;91.80;;;;;;10027162;28;20038;-62
2022/09/18 22:51:08;;;;;;;1.27;0.38;;;15.20;92.00;;;;;;10025655;28;20317;-63
2022/09/18 22:56:13;;;;;;;0.43;0.43;;;15.20;92.10;;;;;;10024290;28;20038;-61
2022/09/18 23:01:17;;;;;;;2.60;0.60;;;15.10;92.30;;;;;;10034806;28;20281;-61
2022/09/18 23:06:08;;;;;;;1.08;0.50;;;15.10;92.40;;;;;;10040835;28;20504;-61
2022/09/18 23:11:02;;;;;;;0.63;0.40;;;15.10;92.60;;;;;;10057112;28;20022;-61
2022/09/18 23:15:53;;;;;;;0.82;0.50;;;15.10;92.70;;;;;;10046470;28;20021;-61
2022/09/18 23:20:43;;;;;;;0.52;0.40;;;15.10;92.80;;;;;;10040030;28;20033;-62
2022/09/18 23:25:35;;;;;;;1.20;0.63;;;15.00;92.90;;;;;;10040123;28;20030;-61
2022/09/18 23:30:26;;;;;;;0.98;0.43;;;15.10;93.00;;;;;;10045863;28;20111;-62
2022/09/18 23:35:16;;;;;;;1.13;0.63;;;15.00;93.20;;;;;;10062782;28;20029;-61
2022/09/18 23:40:07;;;;;;;1.70;0.98;;;14.90;93.30;;;;;;10056619;28;20025;-61
2022/09/18 23:44:58;;;;;;;2.17;0.50;;;14.90;93.80;;;;;;10049053;28;20025;-62
2022/09/18 23:49:49;;;;;;;1.45;0.40;;;14.80;93.70;;;;;;10044069;28;20363;-62
2022/09/18 23:54:39;;;;;;;2.58;0.45;;;14.70;94.30;;;;;;10031242;28;20013;-64
2022/09/18 23:59:30;;;;;;;0.70;0.40;;;14.40;94.90;;;;;;10039395;28;20026;-62
